Time;durP1;ratioP1;P1;durP2;ratioP2;P2;SDS_P1;SDS_P2;PMS_P1;PMS_P2;Temp;Humidity;BMP_temperature;BMP_pressure;BME280_temperature;BME280_humidity;BME280_pressure;Samples;Min_cycle;Max_cycle;Signal;HPM_P1;HPM_P2
2021/05/12 00:00:23;;;;;;;7.87;5.67;;;11.00;99.90;;;;;;5094492;27;20221;-59
2021/05/12 00:02:49;;;;;;;6.57;5.37;;;11.00;99.90;;;;;;5100933;28;20186;-57
2021/05/12 00:05:19;;;;;;;8.17;5.10;;;11.00;99.90;;;;;;5114575;27;20208;-57
2021/05/12 00:07:46;;;;;;;6.13;5.13;;;11.00;99.90;;;;;;5119048;27;20196;-58
2021/05/12 00:10:13;;;;;;;7.00;5.30;;;10.90;99.90;;;;;;5138448;27;20199;-62
2021/05/12 00:12:40;;;;;;;6.20;5.20;;;10.90;99.90;;;;;;5143440;27;20876;-62
2021/05/12 00:15:09;;;;;;;6.77;5.30;;;10.90;99.90;;;;;;5129133;27;20695;-60
2021/05/12 00:17:37;;;;;;;5.40;4.90;;;10.90;99.90;;;;;;5100127;27;20197;-61
2021/05/12 00:20:05;;;;;;;7.73;5.93;;;10.90;99.90;;;;;;5134832;27;20307;-62
2021/05/12 00:22:37;;;;;;;9.97;6.70;;;10.90;99.90;;;;;;5119040;27;20215;-59
2021/05/12 00:25:06;;;;;;;10.13;6.37;;;10.90;99.90;;;;;;5124796;27;20261;-61
2021/05/12 00:27:32;;;;;;;8.27;5.80;;;10.90;99.90;;;;;;5133536;27;20192;-59
2021/05/12 00:29:58;;;;;;;6.87;5.57;;;10.90;99.90;;;;;;5145502;27;20184;-62
2021/05/12 00:32:25;;;;;;;6.07;5.57;;;10.90;99.90;;;;;;5120597;27;20212;-61
2021/05/12 00:34:51;;;;;;;7.80;5.40;;;10.90;99.90;;;;;;5141717;27;20283;-58
2021/05/12 00:37:17;;;;;;;12.93;6.30;;;10.90;99.90;;;;;;5124172;27;20215;-60
2021/05/12 00:39:44;;;;;;;7.47;5.63;;;10.90;99.90;;;;;;5130155;27;20212;-61
2021/05/12 00:42:10;;;;;;;9.97;6.20;;;11.00;99.90;;;;;;5123702;27;20193;-62
2021/05/12 00:44:37;;;;;;;10.93;5.97;;;10.90;99.90;;;;;;5126601;27;20928;-61
2021/05/12 00:47:05;;;;;;;9.23;6.10;;;10.90;99.90;;;;;;5130234;27;20205;-61
2021/05/12 00:49:32;;;;;;;8.00;5.90;;;11.00;99.90;;;;;;5099392;28;20681;-59
2021/05/12 00:51:58;;;;;;;9.43;6.63;;;11.00;99.90;;;;;;5100154;27;20208;-58
2021/05/12 00:54:25;;;;;;;8.57;6.20;;;10.90;99.90;;;;;;5133569;27;20764;-58
2021/05/12 00:56:52;;;;;;;8.67;6.33;;;11.00;99.90;;;;;;5129594;27;20701;-56
2021/05/12 00:59:19;;;;;;;7.00;6.30;;;10.90;99.90;;;;;;5134334;27;20204;-61
2021/05/12 01:01:45;;;;;;;8.63;6.60;;;10.90;99.90;;;;;;5141934;27;20180;-56
2021/05/12 01:04:11;;;;;;;6.97;5.73;;;10.90;99.90;;;;;;5108585;27;20225;-56
2021/05/12 01:06:40;;;;;;;9.70;6.30;;;10.90;99.90;;;;;;5098966;28;20270;-59
2021/05/12 01:09:07;;;;;;;9.10;6.40;;;10.90;99.90;;;;;;5115248;27;20568;-59
2021/05/12 01:11:33;;;;;;;8.80;6.60;;;10.90;99.90;;;;;;5137446;27;20975;-60
2021/05/12 01:14:01;;;;;;;7.77;6.00;;;10.90;99.90;;;;;;5145458;27;20203;-62
2021/05/12 01:16:27;;;;;;;10.50;5.73;;;10.80;99.90;;;;;;5143109;27;20199;-59
2021/05/12 01:18:53;;;;;;;6.67;5.20;;;10.90;99.90;;;;;;5132866;27;20217;-54
2021/05/12 01:21:20;;;;;;;8.77;6.40;;;10.80;99.90;;;;;;5130725;27;20543;-58
2021/05/12 01:23:49;;;;;;;8.93;5.80;;;10.80;99.90;;;;;;5110545;27;20824;-55
2021/05/12 01:26:18;;;;;;;7.00;5.47;;;10.90;99.90;;;;;;5135294;27;20283;-61
2021/05/12 01:28:47;;;;;;;7.27;4.97;;;10.80;99.90;;;;;;5141034;27;20184;-57
2021/05/12 01:31:16;;;;;;;6.37;5.13;;;10.80;99.90;;;;;;5128493;27;20200;-55
2021/05/12 01:33:43;;;;;;;7.67;5.33;;;10.80;99.90;;;;;;5132204;27;20212;-56
2021/05/12 01:36:10;;;;;;;8.63;5.33;;;10.80;99.90;;;;;;5108603;27;20619;-57
2021/05/12 01:38:38;;;;;;;6.13;4.97;;;10.80;99.90;;;;;;5100118;28;20186;-61
2021/05/12 01:41:05;;;;;;;8.90;5.10;;;10.80;99.90;;;;;;5119604;27;20278;-62
2021/05/12 01:43:33;;;;;;;7.57;5.23;;;10.80;99.90;;;;;;5135780;27;20221;-62
2021/05/12 01:45:59;;;;;;;6.13;5.10;;;10.80;99.90;;;;;;5126187;27;20188;-62
2021/05/12 01:48:28;;;;;;;7.90;4.77;;;10.90;99.90;;;;;;5125122;27;20192;-57
2021/05/12 01:50:54;;;;;;;7.07;5.20;;;10.90;99.90;;;;;;5120113;27;20197;-61
2021/05/12 01:53:22;;;;;;;6.23;5.00;;;10.90;99.90;;;;;;5123975;27;20440;-58
2021/05/12 01:55:50;;;;;;;6.77;4.60;;;10.90;99.90;;;;;;5119637;27;20258;-56
2021/05/12 01:58:17;;;;;;;9.13;4.60;;;11.00;99.90;;;;;;5135691;27;20265;-62
2021/05/12 02:00:45;;;;;;;8.53;5.00;;;11.00;99.90;;;;;;5148292;27;20564;-62
2021/05/12 02:03:12;;;;;;;6.00;4.90;;;10.90;99.90;;;;;;5131440;27;20361;-61
2021/05/12 02:05:40;;;;;;;8.60;4.90;;;11.00;99.90;;;;;;5133999;27;20196;-54
2021/05/12 02:08:08;;;;;;;5.43;4.93;;;11.00;99.90;;;;;;5128431;27;20610;-61
2021/05/12 02:10:35;;;;;;;7.57;4.70;;;11.00;99.90;;;;;;5142674;27;20195;-53
2021/05/12 02:13:02;;;;;;;6.67;4.83;;;10.90;99.90;;;;;;5122706;27;20212;-61
2021/05/12 02:15:29;;;;;;;7.73;4.93;;;10.90;99.90;;;;;;5141571;27;20180;-53
2021/05/12 02:17:55;;;;;;;5.37;4.77;;;10.90;99.90;;;;;;5146664;27;20196;-60
2021/05/12 02:20:25;;;;;;;4.97;4.33;;;10.90;99.90;;;;;;5137257;27;20208;-54
2021/05/12 02:22:51;;;;;;;6.07;4.40;;;10.90;99.90;;;;;;5129991;27;20200;-54
2021/05/12 02:25:18;;;;;;;7.07;4.80;;;10.90;99.90;;;;;;5143526;27;20183;-62
2021/05/12 02:27:44;;;;;;;7.67;5.03;;;11.00;99.90;;;;;;5127190;27;20579;-57
2021/05/12 02:30:13;;;;;;;6.53;4.97;;;11.00;99.90;;;;;;5135837;27;20188;-61
2021/05/12 02:32:39;;;;;;;5.90;5.07;;;11.00;99.90;;;;;;5147098;27;20240;-59
2021/05/12 02:35:09;;;;;;;9.03;5.27;;;11.00;99.90;;;;;;5144169;27;20588;-60
2021/05/12 02:37:35;;;;;;;6.10;4.93;;;10.90;99.90;;;;;;5114895;27;20226;-54
2021/05/12 02:40:03;;;;;;;7.77;5.53;;;10.90;99.90;;;;;;5135264;27;20216;-62
2021/05/12 02:42:29;;;;;;;6.77;5.47;;;10.90;99.90;;;;;;5130966;27;20269;-61
2021/05/12 02:44:55;;;;;;;6.17;5.40;;;11.00;99.90;;;;;;5130672;27;20220;-58
2021/05/12 02:47:22;;;;;;;7.67;5.53;;;11.00;99.90;;;;;;5135733;27;20188;-58
2021/05/12 02:49:48;;;;;;;7.70;5.73;;;10.90;99.90;;;;;;5146111;27;20192;-58
2021/05/12 02:52:14;;;;;;;10.30;5.93;;;10.90;99.90;;;;;;5125946;27;20200;-57
2021/05/12 02:54:40;;;;;;;8.10;6.00;;;10.90;99.90;;;;;;5125948;27;20224;-55
2021/05/12 02:57:07;;;;;;;8.47;5.90;;;10.90;99.90;;;;;;5110431;27;20196;-59
2021/05/12 02:59:33;;;;;;;8.10;6.20;;;10.90;99.90;;;;;;5130696;27;20219;-58
2021/05/12 03:01:59;;;;;;;7.27;6.47;;;10.80;99.90;;;;;;5103925;28;20238;-61
2021/05/12 03:04:26;;;;;;;8.83;6.50;;;10.80;99.90;;;;;;5103107;28;20224;-57
2021/05/12 03:06:53;;;;;;;10.00;6.70;;;10.80;99.90;;;;;;5099492;27;20205;-61
2021/05/12 03:09:19;;;;;;;7.73;6.93;;;10.80;99.90;;;;;;5123995;27;20196;-56
2021/05/12 03:11:45;;;;;;;10.30;6.73;;;10.80;99.90;;;;;;5144250;27;20200;-59
2021/05/12 03:14:11;;;;;;;8.63;7.30;;;10.80;99.90;;;;;;5119159;27;20220;-59
2021/05/12 03:16:37;;;;;;;10.90;7.80;;;10.80;99.90;;;;;;5137968;27;20192;-60
2021/05/12 03:19:05;;;;;;;10.90;8.83;;;10.80;99.90;;;;;;5143536;27;20212;-61
2021/05/12 03:21:33;;;;;;;14.10;9.03;;;10.80;99.90;;;;;;5131922;27;20900;-58
2021/05/12 03:23:59;;;;;;;9.73;8.10;;;10.80;99.90;;;;;;5123572;27;20550;-60
2021/05/12 03:26:25;;;;;;;14.00;9.70;;;10.80;99.90;;;;;;5144155;27;20356;-56
2021/05/12 03:28:52;;;;;;;14.47;9.27;;;10.80;99.90;;;;;;5120099;27;20197;-61
2021/05/12 03:31:18;;;;;;;14.60;10.03;;;10.90;99.90;;;;;;5133624;27;20192;-60
2021/05/12 03:33:44;;;;;;;13.93;10.77;;;10.90;99.90;;;;;;5146182;27;20208;-60
2021/05/12 03:36:10;;;;;;;16.83;11.77;;;10.90;99.90;;;;;;5141549;27;20184;-61
2021/05/12 03:38:38;;;;;;;17.23;11.73;;;10.90;99.90;;;;;;5115286;27;20205;-62
2021/05/12 03:41:05;;;;;;;14.87;11.60;;;10.90;99.90;;;;;;5103803;28;20220;-58
2021/05/12 03:43:33;;;;;;;18.63;12.80;;;11.00;99.90;;;;;;5102148;27;20668;-62
2021/05/12 03:46:00;;;;;;;17.03;12.90;;;11.00;99.90;;;;;;5127072;27;20279;-57
2021/05/12 03:48:26;;;;;;;16.67;13.23;;;11.00;99.90;;;;;;5124157;27;20181;-59
2021/05/12 03:50:52;;;;;;;18.83;13.60;;;10.90;99.90;;;;;;5121291;27;20206;-61
2021/05/12 03:53:18;;;;;;;23.20;13.57;;;10.90;99.90;;;;;;5119617;27;20225;-60
2021/05/12 03:55:45;;;;;;;19.37;13.33;;;10.90;99.90;;;;;;5141750;27;20192;-59
2021/05/12 03:58:11;;;;;;;19.07;13.60;;;10.90;99.90;;;;;;5131556;27;20736;-59
2021/05/12 04:00:38;;;;;;;17.40;13.63;;;10.90;99.90;;;;;;5093931;27;20214;-58
2021/05/12 04:03:04;;;;;;;19.60;13.63;;;11.00;99.90;;;;;;5119767;27;20250;-59
2021/05/12 04:05:30;;;;;;;16.23;13.33;;;10.90;99.90;;;;;;5103850;27;20289;-58
2021/05/12 04:07:56;;;;;;;17.77;13.10;;;11.00;99.90;;;;;;5113154;27;20184;-57
2021/05/12 04:10:23;;;;;;;20.90;13.63;;;11.00;99.90;;;;;;5112091;27;20196;-61
2021/05/12 04:12:50;;;;;;;14.93;12.77;;;11.00;99.90;;;;;;5111664;27;20459;-59
2021/05/12 04:15:17;;;;;;;17.47;13.17;;;11.00;99.90;;;;;;5102917;27;20673;-61
2021/05/12 04:17:43;;;;;;;14.87;12.60;;;11.00;99.90;;;;;;5111614;27;20677;-60
2021/05/12 04:20:12;;;;;;;16.93;13.17;;;11.00;99.90;;;;;;5120041;27;20239;-57
2021/05/12 04:22:38;;;;;;;20.70;12.70;;;11.00;99.90;;;;;;5116449;27;20199;-59
2021/05/12 04:25:06;;;;;;;19.20;13.03;;;11.00;99.90;;;;;;5115490;27;20243;-60
2021/05/12 04:27:32;;;;;;;17.27;13.30;;;11.10;99.90;;;;;;5110807;27;20193;-60
2021/05/12 04:29:59;;;;;;;18.30;13.17;;;11.10;99.90;;;;;;5100004;27;20212;-58
2021/05/12 04:32:25;;;;;;;19.17;12.43;;;11.10;99.90;;;;;;5118887;27;20529;-58
2021/05/12 04:34:51;;;;;;;17.23;13.37;;;11.10;99.90;;;;;;5140483;27;20849;-59
2021/05/12 04:37:18;;;;;;;20.80;14.27;;;11.10;99.90;;;;;;5105934;27;20213;-59
2021/05/12 04:39:44;;;;;;;21.43;13.87;;;11.10;99.90;;;;;;5111990;27;20201;-57
2021/05/12 04:42:10;;;;;;;16.73;12.33;;;11.10;99.90;;;;;;5112592;27;20200;-53
2021/05/12 04:44:36;;;;;;;19.70;12.73;;;11.20;99.90;;;;;;5121928;27;20212;-61
2021/05/12 04:47:03;;;;;;;19.80;11.57;;;11.20;99.90;;;;;;5129830;27;20183;-58
2021/05/12 04:49:29;;;;;;;20.50;13.47;;;11.20;99.90;;;;;;5129256;27;20201;-62
2021/05/12 04:51:56;;;;;;;19.37;12.80;;;11.20;99.90;;;;;;5129910;27;20205;-59
2021/05/12 04:54:22;;;;;;;18.00;13.03;;;11.20;99.90;;;;;;5102347;28;20213;-59
2021/05/12 04:56:49;;;;;;;20.70;12.63;;;11.20;99.90;;;;;;5092643;27;20274;-59
2021/05/12 04:59:15;;;;;;;16.67;12.27;;;11.30;99.90;;;;;;5101520;28;20213;-58
2021/05/12 05:01:41;;;;;;;20.10;13.10;;;11.30;99.90;;;;;;5091693;27;20269;-58
2021/05/12 05:04:08;;;;;;;15.60;12.00;;;11.30;99.90;;;;;;5135147;27;20220;-55
2021/05/12 05:06:35;;;;;;;18.57;11.90;;;11.40;99.90;;;;;;5142820;27;20203;-56
2021/05/12 05:09:01;;;;;;;17.03;11.37;;;11.40;99.90;;;;;;5123270;27;20851;-57
2021/05/12 05:11:27;;;;;;;19.60;12.37;;;11.40;99.90;;;;;;5117414;27;20200;-58
2021/05/12 05:13:53;;;;;;;15.80;10.50;;;11.40;99.90;;;;;;5112000;27;20211;-59
2021/05/12 05:16:20;;;;;;;18.07;11.73;;;11.50;99.90;;;;;;5108595;27;20208;-59
2021/05/12 05:18:48;;;;;;;18.93;11.67;;;11.50;99.90;;;;;;5138757;27;20187;-59
2021/05/12 05:21:15;;;;;;;20.40;12.07;;;11.50;99.90;;;;;;5131967;27;20215;-59
2021/05/12 05:23:42;;;;;;;16.53;10.97;;;11.50;99.90;;;;;;5115393;27;20221;-60
2021/05/12 05:26:08;;;;;;;14.77;11.23;;;11.50;99.90;;;;;;5109892;27;20185;-57
2021/05/12 05:28:34;;;;;;;13.50;10.20;;;11.50;99.90;;;;;;5099532;27;20615;-60
2021/05/12 05:31:00;;;;;;;17.90;10.97;;;11.50;99.90;;;;;;5107732;27;20193;-59
2021/05/12 05:33:55;;;;;;;14.03;11.10;;;11.60;99.90;;;;;;5088124;27;20264;-59
2021/05/12 05:36:41;;;;;;;14.03;10.90;;;11.60;99.90;;;;;;5145453;27;20199;-61
2021/05/12 05:39:34;;;;;;;14.90;10.30;;;11.60;99.90;;;;;;5122134;27;20224;-59
2021/05/12 05:42:19;;;;;;;15.07;10.83;;;11.60;99.90;;;;;;5121805;27;20207;-62
2021/05/12 05:45:05;;;;;;;13.77;10.00;;;11.70;99.90;;;;;;5121840;27;20250;-62
2021/05/12 05:47:50;;;;;;;17.93;11.00;;;11.70;99.90;;;;;;5118393;27;20203;-61
2021/05/12 05:50:34;;;;;;;12.03;9.60;;;11.70;99.90;;;;;;5129807;27;20212;-59
2021/05/12 05:53:20;;;;;;;10.80;8.87;;;11.70;99.90;;;;;;5131211;27;20716;-62
2021/05/12 05:56:05;;;;;;;12.37;9.13;;;11.70;99.90;;;;;;5121286;27;20264;-62
2021/05/12 05:58:50;;;;;;;14.37;9.10;;;11.70;99.90;;;;;;5108102;27;20236;-63
2021/05/12 06:01:35;;;;;;;12.90;9.13;;;11.80;99.90;;;;;;5121895;27;20282;-59
2021/05/12 06:04:01;;;;;;;14.43;9.07;;;11.80;99.90;;;;;;5118298;27;20222;-61
2021/05/12 06:06:45;;;;;;;10.13;8.13;;;11.80;99.90;;;;;;5142257;27;20881;-62
2021/05/12 06:09:31;;;;;;;14.50;8.40;;;11.90;99.90;;;;;;5145415;27;20225;-60
2021/05/12 06:12:16;;;;;;;12.70;8.43;;;11.80;99.90;;;;;;5129417;27;20212;-62
2021/05/12 06:15:01;;;;;;;12.23;8.37;;;11.80;99.90;;;;;;5123082;27;20989;-62
2021/05/12 06:17:46;;;;;;;11.23;7.97;;;11.80;99.90;;;;;;5117532;27;20228;-61
2021/05/12 06:20:31;;;;;;;12.87;7.90;;;11.70;99.90;;;;;;5110188;27;20277;-59
2021/05/12 06:23:15;;;;;;;11.37;8.50;;;11.70;99.90;;;;;;5126769;27;21058;-61
2021/05/12 06:26:01;;;;;;;10.07;7.87;;;11.70;99.90;;;;;;5110719;27;20203;-62
2021/05/12 06:28:46;;;;;;;11.40;7.80;;;11.70;99.90;;;;;;5117158;27;21019;-56
2021/05/12 06:31:31;;;;;;;11.23;8.10;;;11.80;99.90;;;;;;5112850;27;20329;-62
2021/05/12 06:34:16;;;;;;;8.67;7.33;;;11.80;99.90;;;;;;5103649;27;20244;-57
2021/05/12 06:37:01;;;;;;;13.30;8.40;;;11.80;99.90;;;;;;5123540;27;20308;-58
2021/05/12 06:39:46;;;;;;;11.43;8.10;;;11.80;99.90;;;;;;5112694;27;20320;-44
2021/05/12 06:42:13;;;;;;;10.50;7.83;;;11.80;99.90;;;;;;5108598;27;20317;-44
2021/05/12 06:44:39;;;;;;;10.57;8.23;;;11.80;99.90;;;;;;5117164;27;20217;-42
2021/05/12 06:47:06;;;;;;;8.93;7.00;;;11.80;99.90;;;;;;5121842;27;20208;-45
2021/05/12 06:49:32;;;;;;;10.27;7.20;;;11.90;99.90;;;;;;5121422;27;20188;-43
2021/05/12 06:51:58;;;;;;;12.87;7.93;;;11.90;99.90;;;;;;5125951;27;20885;-44
2021/05/12 06:54:24;;;;;;;8.40;7.50;;;11.90;99.90;;;;;;5107831;27;20232;-49
2021/05/12 06:56:50;;;;;;;10.80;8.27;;;11.90;99.90;;;;;;5094647;27;20213;-52
2021/05/12 06:59:17;;;;;;;11.20;8.87;;;12.00;99.90;;;;;;5107802;27;20205;-43
2021/05/12 07:01:43;;;;;;;9.43;8.13;;;12.00;99.90;;;;;;5115697;27;20208;-45
2021/05/12 07:04:10;;;;;;;12.63;7.73;;;12.00;99.90;;;;;;5110584;27;20218;-47
2021/05/12 07:06:36;;;;;;;10.67;8.40;;;12.00;99.90;;;;;;5117283;27;20215;-44
2021/05/12 07:09:02;;;;;;;15.03;9.33;;;12.00;99.90;;;;;;5128496;27;20200;-43
2021/05/12 07:11:29;;;;;;;13.77;11.33;;;12.00;99.90;;;;;;5120141;27;20249;-46
2021/05/12 07:13:56;;;;;;;14.30;10.03;;;12.00;99.90;;;;;;5131617;27;20212;-46
2021/05/12 07:16:23;;;;;;;12.83;11.13;;;12.10;99.90;;;;;;5129486;27;20202;-44
2021/05/12 07:18:49;;;;;;;14.93;11.30;;;12.10;99.90;;;;;;5128907;27;20211;-43
2021/05/12 07:21:15;;;;;;;16.97;11.30;;;12.10;99.90;;;;;;5110176;27;20211;-47
2021/05/12 07:23:43;;;;;;;12.83;11.30;;;12.20;99.90;;;;;;5126383;27;20228;-45
2021/05/12 07:26:10;;;;;;;15.57;11.73;;;12.20;99.90;;;;;;5110279;27;20196;-43
2021/05/12 07:28:36;;;;;;;14.97;11.77;;;12.20;99.90;;;;;;5120873;27;20192;-43
2021/05/12 07:31:02;;;;;;;16.23;11.57;;;12.30;99.90;;;;;;5108586;27;20231;-45
2021/05/12 07:33:29;;;;;;;17.20;12.23;;;12.30;99.90;;;;;;5121487;27;20254;-44
2021/05/12 07:35:55;;;;;;;17.37;12.60;;;12.30;99.90;;;;;;5100618;27;20205;-44
2021/05/12 07:38:22;;;;;;;17.73;12.67;;;12.30;99.90;;;;;;5121865;27;20190;-44
2021/05/12 07:40:48;;;;;;;14.93;11.77;;;12.40;99.90;;;;;;5106677;27;20217;-48
2021/05/12 07:43:14;;;;;;;20.47;12.93;;;12.40;99.90;;;;;;5103395;27;20221;-45
2021/05/12 07:45:42;;;;;;;17.30;11.97;;;12.50;99.90;;;;;;5119774;27;20264;-42
2021/05/12 07:48:10;;;;;;;14.53;11.60;;;12.60;99.90;;;;;;5109409;27;20205;-44
2021/05/12 07:50:39;;;;;;;16.03;11.70;;;12.60;99.90;;;;;;5099518;27;20200;-40
2021/05/12 07:53:06;;;;;;;16.53;10.03;;;12.80;99.90;;;;;;5112680;27;20200;-44
2021/05/12 07:55:34;;;;;;;17.80;10.63;;;12.70;99.90;;;;;;5118896;27;20204;-42
2021/05/12 07:58:00;;;;;;;16.70;9.43;;;12.80;99.90;;;;;;5120224;27;20188;-44
2021/05/12 08:00:26;;;;;;;13.13;9.27;;;12.70;99.90;;;;;;5114269;27;20216;-47
2021/05/12 08:02:52;;;;;;;18.00;9.37;;;12.70;99.90;;;;;;5113893;27;20205;-48
2021/05/12 08:05:19;;;;;;;13.97;9.57;;;12.70;99.90;;;;;;5114570;27;20335;-49
2021/05/12 08:07:46;;;;;;;13.23;9.13;;;12.80;99.90;;;;;;5098011;27;20215;-42
2021/05/12 08:10:12;;;;;;;20.00;9.07;;;12.70;99.90;;;;;;5124655;27;20204;-43
2021/05/12 08:12:38;;;;;;;12.40;8.67;;;12.70;99.90;;;;;;5128317;27;20205;-51
2021/05/12 08:15:06;;;;;;;16.87;8.47;;;12.70;99.90;;;;;;5119909;27;20880;-43
2021/05/12 08:17:33;;;;;;;13.47;9.10;;;12.80;99.90;;;;;;5102660;27;20258;-54
2021/05/12 08:20:00;;;;;;;17.43;9.20;;;12.80;99.90;;;;;;5105717;27;20221;-43
2021/05/12 08:22:26;;;;;;;10.27;8.30;;;12.80;99.90;;;;;;5094176;27;20575;-44
2021/05/12 08:24:54;;;;;;;12.10;8.70;;;12.90;99.90;;;;;;5112551;27;20217;-44
2021/05/12 08:27:20;;;;;;;14.50;9.60;;;13.00;99.90;;;;;;5112990;27;20197;-48
2021/05/12 08:29:47;;;;;;;17.17;9.13;;;13.00;99.90;;;;;;5129738;27;20207;-51
2021/05/12 08:32:15;;;;;;;11.90;9.00;;;13.10;99.90;;;;;;5111323;27;20553;-42
2021/05/12 08:34:42;;;;;;;12.90;8.77;;;13.10;99.90;;;;;;5113324;27;20278;-43
2021/05/12 08:37:08;;;;;;;15.77;9.33;;;13.10;99.90;;;;;;5128272;27;20201;-52
2021/05/12 08:39:35;;;;;;;11.80;8.60;;;13.10;99.90;;;;;;5110340;27;20237;-43
2021/05/12 08:42:03;;;;;;;15.33;9.47;;;13.20;99.90;;;;;;5119587;27;20196;-43
2021/05/12 08:44:32;;;;;;;9.90;7.17;;;13.20;99.90;;;;;;5114998;27;20205;-44
2021/05/12 08:46:59;;;;;;;17.83;8.37;;;13.10;99.90;;;;;;5103901;28;20200;-45
2021/05/12 08:49:26;;;;;;;9.60;7.10;;;13.10;99.90;;;;;;5112446;27;20212;-45
2021/05/12 08:51:53;;;;;;;10.83;6.03;;;13.10;99.90;;;;;;5117573;27;20197;-47
2021/05/12 08:54:19;;;;;;;9.27;6.40;;;13.10;99.90;;;;;;5099653;27;20221;-49
2021/05/12 08:56:45;;;;;;;9.20;5.40;;;13.20;99.90;;;;;;5114430;27;20192;-42
2021/05/12 08:59:14;;;;;;;9.87;4.90;;;13.20;99.90;;;;;;5112154;27;20204;-48
2021/05/12 09:01:40;;;;;;;7.73;4.83;;;13.20;99.90;;;;;;5116977;27;20193;-44
2021/05/12 09:04:07;;;;;;;9.53;5.57;;;13.30;99.90;;;;;;5111175;27;20217;-45
2021/05/12 09:06:34;;;;;;;8.10;5.33;;;13.40;99.90;;;;;;5102962;27;20204;-44
2021/05/12 09:09:01;;;;;;;8.60;6.17;;;13.50;99.90;;;;;;5109359;27;20682;-45
2021/05/12 09:11:28;;;;;;;8.63;6.20;;;13.60;99.90;;;;;;5114153;27;20177;-45
2021/05/12 09:13:55;;;;;;;12.10;6.20;;;13.60;99.90;;;;;;5125190;27;20296;-43
2021/05/12 09:16:23;;;;;;;9.47;6.20;;;13.60;99.90;;;;;;5105892;27;21319;-45
2021/05/12 09:19:00;;;;;;;8.53;6.33;;;13.70;99.90;;;;;;5119765;27;20189;-41
2021/05/12 09:21:41;;;;;;;9.70;6.37;;;13.80;99.90;;;;;;5110342;27;20244;-42
2021/05/12 09:24:18;;;;;;;13.37;6.80;;;13.90;99.90;;;;;;5093549;27;20546;-40
2021/05/12 09:26:45;;;;;;;8.63;5.80;;;13.90;99.90;;;;;;5110290;27;20211;-46
2021/05/12 09:29:11;;;;;;;11.10;6.00;;;13.90;99.90;;;;;;5109117;27;20203;-43
2021/05/12 09:31:38;;;;;;;10.73;6.00;;;13.90;99.90;;;;;;5108723;27;20193;-43
2021/05/12 09:34:06;;;;;;;9.43;5.53;;;14.00;99.90;;;;;;5110326;27;20208;-41
2021/05/12 09:36:32;;;;;;;8.43;4.97;;;14.00;99.90;;;;;;5103578;27;20878;-43
2021/05/12 09:38:59;;;;;;;8.23;4.70;;;14.10;99.90;;;;;;5110192;28;20830;-44
2021/05/12 09:41:33;;;;;;;7.07;3.77;;;14.10;99.90;;;;;;5104814;27;20223;-44
2021/05/12 09:44:00;;;;;;;5.17;4.00;;;14.20;99.90;;;;;;5110951;27;20464;-40
2021/05/12 09:46:33;;;;;;;5.87;4.37;;;14.20;99.90;;;;;;5113307;27;20194;-45
2021/05/12 09:49:09;;;;;;;7.67;3.83;;;14.10;99.90;;;;;;5106537;27;20192;-42
2021/05/12 09:51:37;;;;;;;6.83;3.40;;;14.20;99.90;;;;;;5105983;27;20224;-43
2021/05/12 09:54:06;;;;;;;5.23;3.87;;;14.20;99.90;;;;;;5112414;27;20311;-42
2021/05/12 09:56:37;;;;;;;12.47;5.17;;;14.10;99.90;;;;;;5115980;27;20252;-41
2021/05/12 09:59:08;;;;;;;9.83;3.83;;;14.10;99.90;;;;;;5110279;27;20209;-40
2021/05/12 10:01:42;;;;;;;9.77;3.63;;;14.10;99.90;;;;;;5100975;27;20217;-51
2021/05/12 10:04:38;;;;;;;10.03;4.30;;;14.10;99.90;;;;;;5101517;27;20567;-42
2021/05/12 10:07:19;;;;;;;7.23;2.83;;;14.20;99.90;;;;;;5103306;27;20352;-45
2021/05/12 10:09:47;;;;;;;3.50;2.90;;;14.20;99.90;;;;;;5119583;27;20206;-54
2021/05/12 10:12:16;;;;;;;3.80;2.80;;;14.30;99.90;;;;;;5121857;27;20239;-41
2021/05/12 10:14:44;;;;;;;5.00;2.90;;;14.40;99.90;;;;;;5116355;27;20213;-52
2021/05/12 10:17:12;;;;;;;6.33;3.00;;;14.40;99.90;;;;;;5125447;27;20279;-44
2021/05/12 10:19:39;;;;;;;6.57;3.00;;;14.40;99.90;;;;;;5104379;27;20681;-52
2021/05/12 10:22:06;;;;;;;5.50;2.70;;;14.50;99.90;;;;;;5123654;27;20257;-41
2021/05/12 10:24:35;;;;;;;5.93;3.43;;;14.70;99.90;;;;;;5126042;27;20217;-42
2021/05/12 10:27:07;;;;;;;4.93;2.93;;;14.70;99.90;;;;;;5124953;27;20264;-52
2021/05/12 10:29:35;;;;;;;7.33;3.10;;;14.70;99.90;;;;;;5115969;27;20200;-42
2021/05/12 10:32:17;;;;;;;4.43;2.60;;;14.60;99.90;;;;;;5111987;27;20794;-51
2021/05/12 10:34:46;;;;;;;4.90;2.60;;;14.70;99.90;;;;;;5103794;27;20581;-41
2021/05/12 10:37:17;;;;;;;5.80;3.00;;;14.80;99.90;;;;;;5107433;27;20189;-43
2021/05/12 10:39:44;;;;;;;4.23;2.70;;;15.00;99.90;;;;;;5118546;27;20212;-43
2021/05/12 10:42:11;;;;;;;7.37;3.33;;;15.10;99.90;;;;;;5134739;27;20197;-47
2021/05/12 10:44:39;;;;;;;3.97;3.00;;;15.00;99.90;;;;;;5118928;27;20704;-53
2021/05/12 10:47:09;;;;;;;3.50;2.70;;;15.00;99.90;;;;;;5126398;27;20212;-40
2021/05/12 10:49:36;;;;;;;4.53;2.67;;;15.00;99.90;;;;;;5127242;27;20203;-53
2021/05/12 10:52:08;;;;;;;8.10;2.77;;;15.10;99.90;;;;;;5113111;27;20200;-45
2021/05/12 10:54:42;;;;;;;3.20;2.17;;;15.10;99.90;;;;;;5123500;27;20224;-51
2021/05/12 10:57:10;;;;;;;3.20;2.23;;;15.10;99.90;;;;;;5107497;27;20197;-40
2021/05/12 10:59:41;;;;;;;4.23;2.43;;;15.10;99.90;;;;;;5098464;27;20204;-49
2021/05/12 11:02:07;;;;;;;3.10;2.13;;;15.00;99.90;;;;;;5101120;27;20207;-41
2021/05/12 11:04:34;;;;;;;4.30;2.50;;;14.90;99.90;;;;;;5110128;27;20303;-46
2021/05/12 11:07:08;;;;;;;4.37;2.10;;;14.90;99.90;;;;;;5102183;27;20193;-43
2021/05/12 11:09:39;;;;;;;6.33;2.20;;;14.90;99.90;;;;;;5118180;27;20188;-45
2021/05/12 11:12:09;;;;;;;4.17;2.83;;;15.10;99.90;;;;;;5111878;27;20197;-42
2021/05/12 11:14:36;;;;;;;4.87;2.60;;;15.10;99.90;;;;;;5107100;27;20223;-43
2021/05/12 11:17:03;;;;;;;5.27;3.70;;;15.20;99.90;;;;;;5127927;27;20184;-51
2021/05/12 11:19:38;;;;;;;7.97;3.70;;;15.30;99.90;;;;;;5104869;27;20197;-43
2021/05/12 11:22:32;;;;;;;6.23;3.93;;;15.30;99.90;;;;;;5108326;27;20303;-48
2021/05/12 11:25:03;;;;;;;6.67;4.63;;;15.40;99.90;;;;;;5108896;27;20331;-45
2021/05/12 11:27:47;;;;;;;10.30;5.17;;;15.30;99.90;;;;;;5116268;27;20193;-45
2021/05/12 11:33:03;;;;;;;8.20;6.07;;;15.40;99.90;;;;;;5118602;27;20200;-43
2021/05/12 11:35:30;;;;;;;10.10;7.10;;;15.40;99.90;;;;;;5110205;27;20269;-55
2021/05/12 11:37:58;;;;;;;11.50;7.77;;;15.40;99.90;;;;;;5110222;27;20924;-47
2021/05/12 11:40:29;;;;;;;10.67;6.80;;;15.40;99.90;;;;;;5119345;27;20211;-41
2021/05/12 11:42:56;;;;;;;12.13;6.03;;;15.50;99.90;;;;;;5117835;27;20238;-43
2021/05/12 11:45:23;;;;;;;9.07;5.33;;;15.50;99.90;;;;;;5129233;27;20203;-48
2021/05/12 11:47:58;;;;;;;8.80;4.80;;;15.50;99.90;;;;;;5108352;27;20249;-44
2021/05/12 11:50:26;;;;;;;8.57;5.30;;;15.60;99.90;;;;;;5109857;27;20201;-51
2021/05/12 11:52:53;;;;;;;7.60;4.03;;;15.70;99.90;;;;;;5102619;27;20193;-46
2021/05/12 11:55:24;;;;;;;7.97;4.30;;;15.80;99.90;;;;;;5112880;27;20266;-45
2021/05/12 11:57:51;;;;;;;13.07;5.03;;;15.90;99.90;;;;;;5101875;27;20233;-43
2021/05/12 12:00:21;;;;;;;11.90;4.47;;;15.90;99.90;;;;;;5109091;27;20615;-46
2021/05/12 12:02:58;;;;;;;6.30;4.60;;;15.80;99.90;;;;;;5112864;27;20200;-42
2021/05/12 12:05:27;;;;;;;9.77;4.90;;;15.70;99.90;;;;;;5113924;27;20217;-42
2021/05/12 12:08:08;;;;;;;9.33;5.10;;;15.60;99.90;;;;;;5108747;27;20228;-48
2021/05/12 12:10:35;;;;;;;8.00;5.13;;;15.50;99.90;;;;;;5110851;27;20201;-40
2021/05/12 12:13:02;;;;;;;5.07;4.50;;;15.40;99.90;;;;;;5114821;27;20933;-47
2021/05/12 12:15:28;;;;;;;6.50;4.37;;;15.50;99.90;;;;;;5116567;27;20204;-42
2021/05/12 12:17:55;;;;;;;11.30;4.70;;;15.50;99.90;;;;;;5088964;27;20208;-44
2021/05/12 12:20:30;;;;;;;6.83;4.27;;;15.60;99.90;;;;;;5107013;27;20217;-45
2021/05/12 12:22:57;;;;;;;8.30;4.87;;;15.80;99.90;;;;;;5111878;27;20217;-48
2021/05/12 12:25:29;;;;;;;8.67;4.87;;;15.90;99.90;;;;;;5115648;27;20204;-40
2021/05/12 12:27:56;;;;;;;6.40;4.00;;;15.80;99.90;;;;;;5116247;27;20236;-49
2021/05/12 12:30:22;;;;;;;8.00;4.17;;;15.90;99.90;;;;;;5123108;27;20588;-50
2021/05/12 12:32:48;;;;;;;7.03;3.80;;;15.90;99.90;;;;;;5099399;27;21086;-41
2021/05/12 12:35:15;;;;;;;6.67;4.33;;;15.80;99.90;;;;;;5103635;27;20255;-46
2021/05/12 12:37:43;;;;;;;10.10;4.67;;;15.90;99.90;;;;;;5118112;27;20197;-47
2021/05/12 12:40:10;;;;;;;8.43;3.90;;;16.00;99.90;;;;;;5105529;27;20208;-42
2021/05/12 12:42:39;;;;;;;6.17;5.03;;;16.10;99.90;;;;;;5115665;27;20203;-45
2021/05/12 12:45:20;;;;;;;10.67;4.20;;;16.10;99.90;;;;;;5121128;27;20224;-46
2021/05/12 12:47:51;;;;;;;4.87;3.33;;;16.10;99.90;;;;;;5113661;27;20250;-49
2021/05/12 12:50:18;;;;;;;6.13;3.80;;;16.10;99.90;;;;;;5111222;27;20208;-48
2021/05/12 12:52:44;;;;;;;10.03;3.93;;;16.20;99.90;;;;;;5122527;27;20200;-52